TNCATNCC

Guest
Details From TNCA - REINA BEATRIX INTL
To TNCC - Curacao Hato
Flight Number -
Tags generated
Created
Modified
Stats Distance 65 nm / 120 km
Max Altitude 600 ft / 183 m
Waypoints 3
Social Downloads 2
Likes 0
Share VATSIM

Download

Looking for another format? Having issues loading an existing format? Contact us
Advertisement - Login to hide

Notes

Basic altitude profile: - Ascent Rate: 2500ft/min - Ascent Speed: 250kts - Cruise Altitude: 6000ft - Cruise Speed: 420kts - Descent Rate: 1500ft/min - Descent Speed: 250kts Options: - Use NATs: yes - Use PACOTS: yes - Use low airways: yes - Use high airways: yes

Route

TNCA PJG TNCC

ID Type Via Altitude Latitude Longitude Leg Dist Tot Dist Heading (true) Name
O TNCA APT - 0 ft / 0 m 12.50139˚ -70.01522˚ - 0 nm - REINA BEATRIX INTL
PJG VOR - 600 ft / 183 m 12.20028˚ -69.01000˚ 61 nm 61 nm 107° / 107° CURACAO VOR-DME
O TNCC APT - 0 ft / 0 m 12.18885˚ -68.95980˚ 3 nm 64 nm 103° / 103° Curacao Hato

Altitude Profile

Advertisement - Login to hide

TNCA

Details ICAO TNCA (AUA)
Name REINA BEATRIX INTL
Region Caribbean Netherlands, Aruba, Curaçao, Sint Maarten
Timezone America/Aruba (UTC-4.0)
Stats Elevation 60 ft / 18 m (AMSL)
Location 12.501389° -70.015220°
Runways 1
Magnetic Variation 10.771° W

METAR

TNCA 160000Z 08014KT 9999 FEW018 27/23 Q1013 A2991 NOSIG

Decode

TAF

Not found

Departure Runways

ID Width Length Bearing (true) Bearing (mag) Surface Threshold Offset Overrun Length
11 148 ft / 45 m 8,998 ft / 2,743 m 104.08° 114.85° Asphalt 0 ft / 0 m 184 ft / 56 m
29 148 ft / 45 m 8,998 ft / 2,743 m 284.09° 294.86° Asphalt 0 ft / 0 m 184 ft / 56 m

TNCC

Details ICAO TNCC (CUR)
Name Curacao Hato
Region Caribbean Netherlands, Aruba, Curaçao, Sint Maarten
Timezone Unknown (UTC+0.0)
Stats Elevation 29 ft / 9 m (AMSL)
Location 12.188853° -68.959803°
Runways 1
Magnetic Variation 11.331° W

METAR

TNCC 152300Z 11010KT 9999 FEW018 27/22 Q1013 NOSIG

Decode

TAF

Not found

Destination Runways

ID Width Length Bearing (true) Bearing (mag) Surface Threshold Offset Overrun Length
11 197 ft / 60 m 11,197 ft / 3,413 m 102.24° 113.57° Asphalt 300 ft / 91 m 0 ft / 0 m
29 197 ft / 60 m 11,197 ft / 3,413 m 282.24° 293.57° Asphalt 300 ft / 91 m 200 ft / 61 m

Approach Navaids

Runway Type Ident Frequency Range Bearing (true) Bearing (mag) Slope Elevation
11 Localiser IATO 111.90 MHz 18 nm / 33 km 102.23° 113.56° - 29 ft / 9 m (AMSL)
11 Glidescope IATO 111.90 MHz 10 nm / 19 km 102.24° 113.57° 3.00° 29 ft / 9 m (AMSL)
11 DME IATO 111.90 MHz 18 nm / 33 km - - - 29 ft / 9 m (AMSL)

Popular Alternatives